Aérodrome :
LOGIN :

S'inscrire | Disclaimer

   EN    FR    IT 

 










Légende :    VFR   VFR Marginal   IFR   IFR Intensif   IFR Très Intensif
Visi : 
Plafond : 
>= 8 km
>= 3000ft
5 à 8 km
1000 à 3000 ft
1500m à 5 km
500 à 1000 ft
800 à 1500m
200 à 500 ft
< 800m
< 200 ft
Symboles :   Orages  Brouillard  Fortes neiges  Fortes précipitations  Vent > 20 kt
SIGMETs :   Divers  Orages  Givrage  Turbulence  Onde Orograph.  Cendres Volcan.







- Altitude de l'aérodrome : 9 ft
- Code IATA : MIR


DTMB - Habib Bourguliba Int. Monastir

DERNIER METAR :
  • 300230Z 05004KT 330V080 CAVOK 16/14 Q1014

METARs EXPIRÉS :
  • 300200Z 33004KT 280V040 CAVOK 16/14 Q1014
  • 300130Z 30004KT 270V340 CAVOK 16/13 Q1014
  • 300100Z 32005KT CAVOK 16/13 Q1015
  • 300030Z 34004KT 310V020 CAVOK 16/14 Q1015
  • 300000Z 33003KT CAVOK 16/13 Q1015

TAF TAF DTMB
Valide du 30 à 00h jusqu'au 01 à 00h UTC


292300Z 3000/3024 33010KT CAVOK
BECMG 3003/3005 VRB03KT
BECMG 3010/3012 07010KT
BECMG 3018/3020 VRB03KT
Pas de NOTAMs connus pour ce terrain.



MET'MAP, la Météo Aéronautique d'un coup d'oeil ! - Copyright ORBIFLY Décembre 2007 - Disclaimer

ORBIFLY MET'MAP TEAM :

Programmation & Développement : Alexandra Zaïnal
Conception & Développement : Baudouin d'Aumeries
Co-Programmation & Développement : Marc-Olivier Méhu
Soutien technique & logistique : Manuel Goepfert

Contact : metmap@orbifly.com




SOURCES & CREDITS :

   NOAA